Time;durP1;ratioP1;P1;durP2;ratioP2;P2;SDS_P1;SDS_P2;PMS_P1;PMS_P2;Temp;Humidity;BMP_temperature;BMP_pressure;BME280_temperature;BME280_humidity;BME280_pressure;Samples;Min_cycle;Max_cycle;Signal;HPM_P1;HPM_P2
2022/02/21 00:00:38;;;;;;;4.35;0.88;;;27.70;54.20;;;;;;5200814;22;20543;-58
2022/02/21 00:03:01;;;;;;;1.90;0.90;;;27.40;53.50;;;;;;5176871;22;20072;-65
2022/02/21 00:05:24;;;;;;;2.00;0.70;;;27.10;53.00;;;;;;5202650;22;20059;-64
2022/02/21 00:07:48;;;;;;;2.33;1.40;;;26.80;53.10;;;;;;5203112;22;20484;-65
2022/02/21 00:10:12;;;;;;;1.08;0.85;;;26.50;52.90;;;;;;5173206;22;20015;-68
2022/02/21 00:12:35;;;;;;;1.27;1.00;;;26.30;52.90;;;;;;5202311;22;20465;-64
2022/02/21 00:14:57;;;;;;;1.60;0.98;;;26.10;52.70;;;;;;5204531;22;20647;-62
2022/02/21 00:17:20;;;;;;;3.20;1.23;;;25.90;52.80;;;;;;5203724;22;20778;-66
2022/02/21 00:19:42;;;;;;;1.05;0.90;;;25.70;53.00;;;;;;5179869;22;20011;-74
2022/02/21 00:22:05;;;;;;;1.55;1.00;;;25.50;53.50;;;;;;5211861;22;20010;-68
2022/02/21 00:24:28;;;;;;;0.50;0.50;;;25.40;53.70;;;;;;5207391;22;20069;-65
2022/02/21 00:26:50;;;;;;;2.88;0.90;;;25.20;53.50;;;;;;5210730;22;20104;-67
2022/02/21 00:29:13;;;;;;;1.05;0.80;;;25.10;53.80;;;;;;5211991;22;20019;-68
2022/02/21 00:31:36;;;;;;;0.70;0.70;;;25.00;53.90;;;;;;5210907;22;20156;-68
2022/02/21 00:33:58;;;;;;;1.20;0.80;;;24.80;53.80;;;;;;5215038;22;20011;-68
2022/02/21 00:36:21;;;;;;;1.77;1.00;;;24.70;53.90;;;;;;5205838;22;20063;-70
2022/02/21 00:38:43;;;;;;;1.08;0.93;;;24.60;54.40;;;;;;5208720;22;20112;-69
2022/02/21 00:41:06;;;;;;;1.42;0.70;;;24.50;54.60;;;;;;5206194;22;20011;-68
2022/02/21 00:43:28;;;;;;;1.35;0.85;;;24.40;54.50;;;;;;5178199;22;20022;-70
2022/02/21 00:45:51;;;;;;;2.13;0.90;;;24.30;55.20;;;;;;5204111;22;20042;-65
2022/02/21 00:48:14;;;;;;;1.08;0.95;;;24.20;55.30;;;;;;5210037;22;20015;-66
2022/02/21 00:50:37;;;;;;;0.85;0.80;;;24.20;55.30;;;;;;5210611;22;20015;-64
2022/02/21 00:52:59;;;;;;;0.80;0.80;;;24.00;55.00;;;;;;5198651;22;20067;-69
2022/02/21 00:55:24;;;;;;;1.35;0.90;;;24.00;55.70;;;;;;5214139;22;20083;-73
2022/02/21 00:57:47;;;;;;;0.77;0.77;;;23.90;55.80;;;;;;5210167;22;20027;-68
2022/02/21 01:00:10;;;;;;;0.80;0.80;;;23.80;56.20;;;;;;5211998;22;20069;-72
2022/02/21 01:02:33;;;;;;;1.43;0.80;;;23.80;56.10;;;;;;5214485;22;20049;-65
2022/02/21 01:04:55;;;;;;;1.20;1.05;;;23.70;56.20;;;;;;5177904;22;20324;-72
2022/02/21 01:07:18;;;;;;;1.15;0.93;;;23.60;56.10;;;;;;5177085;22;20022;-68
2022/02/21 01:09:41;;;;;;;1.20;0.77;;;23.60;56.60;;;;;;5207206;22;20022;-69
2022/02/21 01:12:04;;;;;;;0.98;0.90;;;23.50;57.20;;;;;;5211363;22;20194;-67
2022/02/21 01:14:26;;;;;;;1.15;1.00;;;23.50;56.70;;;;;;5208957;22;20405;-73
2022/02/21 01:16:49;;;;;;;1.67;1.10;;;23.50;56.90;;;;;;5201011;22;20011;-69
2022/02/21 01:19:11;;;;;;;2.22;1.10;;;23.40;57.00;;;;;;5213440;22;20077;-68
2022/02/21 01:21:34;;;;;;;0.70;0.70;;;23.40;57.00;;;;;;5206357;22;20030;-64
2022/02/21 01:23:56;;;;;;;1.02;0.80;;;23.30;57.10;;;;;;5203934;22;20084;-66
2022/02/21 01:26:19;;;;;;;1.40;0.88;;;23.20;57.20;;;;;;5209329;22;20121;-67
2022/02/21 01:28:41;;;;;;;1.63;0.98;;;23.20;57.40;;;;;;5208261;22;20015;-69
2022/02/21 01:31:04;;;;;;;1.20;1.10;;;23.20;57.30;;;;;;5206972;22;20019;-64
2022/02/21 01:33:28;;;;;;;1.00;0.88;;;23.10;57.60;;;;;;5213009;22;20022;-66
2022/02/21 01:35:50;;;;;;;2.92;1.00;;;23.10;57.70;;;;;;5212242;22;20006;-68
2022/02/21 01:38:13;;;;;;;1.08;0.95;;;23.00;57.60;;;;;;5209209;22;20086;-63
2022/02/21 01:40:35;;;;;;;1.35;1.10;;;23.00;57.50;;;;;;5216020;22;20076;-66
2022/02/21 01:42:58;;;;;;;0.82;0.82;;;22.90;57.30;;;;;;5178595;22;20019;-63
2022/02/21 01:45:21;;;;;;;2.78;1.10;;;22.90;57.60;;;;;;5210684;22;20748;-63
2022/02/21 01:47:43;;;;;;;2.25;1.27;;;22.80;57.10;;;;;;5209854;22;20427;-70
2022/02/21 01:50:06;;;;;;;0.90;0.90;;;22.80;57.80;;;;;;5210068;22;20473;-68
2022/02/21 01:52:29;;;;;;;1.10;0.88;;;22.70;57.60;;;;;;5211655;22;20015;-70
2022/02/21 01:54:52;;;;;;;1.20;1.10;;;22.70;57.50;;;;;;5215585;22;20033;-64
2022/02/21 01:57:15;;;;;;;2.78;0.90;;;22.70;57.70;;;;;;5215244;22;20036;-72
2022/02/21 01:59:39;;;;;;;1.40;0.98;;;22.60;57.70;;;;;;5211533;22;20163;-66
2022/02/21 02:02:01;;;;;;;;;;;22.60;58.50;;;;;;5215755;22;20014;-68
2022/02/21 02:04:25;;;;;;;2.25;1.25;;;22.50;57.70;;;;;;5211647;22;19917;-72
2022/02/21 02:06:48;;;;;;;1.20;1.10;;;22.50;57.90;;;;;;5214086;22;20014;-64
2022/02/21 02:09:11;;;;;;;1.10;0.90;;;22.40;57.80;;;;;;5220115;22;20045;-70
2022/02/21 02:11:36;;;;;;;1.25;1.05;;;22.40;57.80;;;;;;5210406;22;20037;-65
2022/02/21 02:13:58;;;;;;;0.82;0.75;;;22.40;58.10;;;;;;5180029;22;20034;-68
2022/02/21 02:16:21;;;;;;;1.10;0.93;;;22.40;58.00;;;;;;5180846;22;20067;-66
2022/02/21 02:18:43;;;;;;;0.90;0.80;;;22.30;58.20;;;;;;5210929;22;20296;-69
2022/02/21 02:21:06;;;;;;;0.85;0.80;;;22.30;58.20;;;;;;5181723;22;20098;-68
2022/02/21 02:23:28;;;;;;;1.48;1.00;;;22.30;58.50;;;;;;5216028;22;20010;-76
2022/02/21 02:25:51;;;;;;;2.72;1.35;;;22.30;58.50;;;;;;5213923;22;20030;-71
2022/02/21 02:28:13;;;;;;;3.05;2.42;;;22.20;58.50;;;;;;5210473;22;20022;-69
2022/02/21 02:30:36;;;;;;;7.00;6.30;;;22.20;58.70;;;;;;5214418;22;20035;-69
2022/02/21 02:32:59;;;;;;;8.85;7.70;;;22.20;58.80;;;;;;5217624;22;20056;-69
2022/02/21 02:35:22;;;;;;;9.48;8.55;;;22.20;59.00;;;;;;5210121;22;20076;-65
2022/02/21 02:37:45;;;;;;;8.38;7.55;;;22.10;59.30;;;;;;5210150;22;20362;-70
2022/02/21 02:40:08;;;;;;;11.38;10.23;;;22.10;59.40;;;;;;5217256;22;20014;-70
2022/02/21 02:42:30;;;;;;;15.02;13.52;;;22.10;60.30;;;;;;5212154;22;20018;-68
2022/02/21 02:44:53;;;;;;;13.55;12.15;;;22.10;59.70;;;;;;5208413;22;20117;-68
2022/02/21 02:47:16;;;;;;;11.65;10.55;;;22.20;60.30;;;;;;5214075;22;20133;-69
2022/02/21 02:49:39;;;;;;;11.53;10.20;;;22.30;60.40;;;;;;5208623;22;20021;-69
2022/02/21 02:52:02;;;;;;;11.75;10.07;;;22.50;60.40;;;;;;5208824;22;20025;-70
2022/02/21 02:54:26;;;;;;;10.43;9.40;;;22.70;60.60;;;;;;5216568;22;20011;-69
2022/02/21 02:56:48;;;;;;;9.25;8.23;;;22.90;60.80;;;;;;5207641;22;20026;-70
2022/02/21 02:59:11;;;;;;;9.15;8.05;;;23.10;60.70;;;;;;5179751;22;20030;-66
2022/02/21 03:01:33;;;;;;;10.60;7.70;;;23.30;61.30;;;;;;5214898;22;20341;-68
2022/02/21 03:03:56;;;;;;;9.60;7.35;;;23.50;62.50;;;;;;5174482;22;20018;-63
2022/02/21 03:06:18;;;;;;;12.32;8.82;;;23.60;63.80;;;;;;5208236;22;21265;-64
2022/02/21 03:08:41;;;;;;;8.30;7.35;;;23.80;62.60;;;;;;5212128;22;20363;-65
2022/02/21 03:11:03;;;;;;;9.60;7.20;;;23.70;60.80;;;;;;5209152;22;20014;-68
2022/02/21 03:13:26;;;;;;;6.78;5.90;;;23.60;60.20;;;;;;5176505;22;20043;-65
2022/02/21 03:15:48;;;;;;;7.95;5.75;;;23.40;60.00;;;;;;5181457;22;20137;-66
2022/02/21 03:18:11;;;;;;;7.25;5.32;;;23.30;60.10;;;;;;5211335;22;20029;-67
2022/02/21 03:20:33;;;;;;;5.95;4.53;;;23.20;60.20;;;;;;5211822;22;20117;-66
2022/02/21 03:22:56;;;;;;;6.10;4.70;;;23.10;60.20;;;;;;5206940;22;20011;-62
2022/02/21 03:25:19;;;;;;;;;;;23.10;60.50;;;;;;5186548;22;20011;-64
2022/02/21 03:27:43;;;;;;;5.07;3.45;;;23.00;60.60;;;;;;5196404;22;19986;-62
2022/02/21 03:30:06;;;;;;;6.05;3.30;;;22.90;60.60;;;;;;5217139;22;20067;-63
2022/02/21 03:32:29;;;;;;;5.78;3.80;;;22.90;60.50;;;;;;5226645;22;20014;-70
2022/02/21 03:34:53;;;;;;;5.45;3.10;;;22.80;60.40;;;;;;5219609;22;20032;-68
2022/02/21 03:37:15;;;;;;;4.93;2.83;;;22.80;60.40;;;;;;5215579;22;20453;-65
2022/02/21 03:39:38;;;;;;;4.95;2.90;;;22.80;60.30;;;;;;5202859;22;20010;-65
2022/02/21 03:42:00;;;;;;;6.15;2.80;;;22.80;60.60;;;;;;5200347;22;20059;-63
2022/02/21 03:44:23;;;;;;;4.70;2.50;;;22.70;60.60;;;;;;5203954;22;20006;-66
2022/02/21 03:46:49;;;;;;;4.28;2.55;;;22.70;60.60;;;;;;5202383;22;20050;-66
2022/02/21 03:49:12;;;;;;;3.58;2.38;;;22.70;60.60;;;;;;5201206;22;20009;-65
2022/02/21 03:51:35;;;;;;;4.68;2.45;;;22.70;60.60;;;;;;5195830;22;20011;-66
2022/02/21 03:53:58;;;;;;;4.25;2.30;;;22.60;60.60;;;;;;5201458;22;20012;-67
2022/02/21 03:56:21;;;;;;;5.97;2.67;;;22.60;60.70;;;;;;5168094;22;20135;-65
2022/02/21 03:58:45;;;;;;;3.80;2.20;;;22.60;60.90;;;;;;5200438;22;20014;-64
2022/02/21 04:01:07;;;;;;;3.40;2.17;;;22.60;60.60;;;;;;5203143;22;20039;-66
2022/02/21 04:03:30;;;;;;;4.38;2.38;;;22.60;60.60;;;;;;5198866;22;20014;-69
2022/02/21 04:05:52;;;;;;;4.18;2.05;;;22.50;60.40;;;;;;5194598;22;20014;-67
2022/02/21 04:08:15;;;;;;;5.07;2.80;;;22.50;60.40;;;;;;5199109;22;20364;-66
2022/02/21 04:10:38;;;;;;;6.93;3.95;;;22.50;60.40;;;;;;5195237;22;20015;-67
2022/02/21 04:13:00;;;;;;;6.10;3.78;;;22.50;60.50;;;;;;5198849;22;20505;-63
2022/02/21 04:15:23;;;;;;;5.95;3.67;;;22.50;60.20;;;;;;5196357;22;20515;-66
2022/02/21 04:17:48;;;;;;;5.07;3.70;;;22.50;60.20;;;;;;5195068;22;20026;-65
2022/02/21 04:20:13;;;;;;;5.72;3.80;;;22.50;60.30;;;;;;5170385;22;20037;-70
2022/02/21 04:22:36;;;;;;;5.32;3.42;;;22.40;60.10;;;;;;5198107;22;20071;-64
2022/02/21 04:24:58;;;;;;;5.35;3.28;;;22.50;60.20;;;;;;5166943;22;20352;-65
2022/02/21 04:27:21;;;;;;;4.07;2.95;;;22.40;60.30;;;;;;5201214;22;20014;-69
2022/02/21 04:29:43;;;;;;;4.32;3.03;;;22.40;60.20;;;;;;5191618;22;20037;-67
2022/02/21 04:32:07;;;;;;;4.32;2.83;;;22.50;60.40;;;;;;5195822;22;20936;-72
2022/02/21 04:34:29;;;;;;;4.97;2.80;;;22.50;60.40;;;;;;5171495;22;20007;-67
2022/02/21 04:36:52;;;;;;;4.30;2.70;;;22.50;60.40;;;;;;5196555;22;20078;-69
2022/02/21 04:39:15;;;;;;;4.82;2.50;;;22.40;60.40;;;;;;5198723;22;20071;-69
2022/02/21 04:41:38;;;;;;;4.10;2.60;;;22.40;60.30;;;;;;5200669;22;20446;-66
2022/02/21 04:44:01;;;;;;;5.63;2.80;;;22.40;60.20;;;;;;5196056;22;20071;-67
2022/02/21 04:46:23;;;;;;;6.57;2.42;;;22.40;60.30;;;;;;5201775;22;20818;-70
2022/02/21 04:48:46;;;;;;;3.72;2.40;;;22.40;60.30;;;;;;5204766;22;20003;-65
2022/02/21 04:51:08;;;;;;;4.47;2.65;;;22.40;60.20;;;;;;5200438;22;20097;-65
2022/02/21 04:53:31;;;;;;;4.32;2.60;;;22.40;60.40;;;;;;5202085;22;20520;-67
2022/02/21 04:55:53;;;;;;;3.88;2.30;;;22.40;60.50;;;;;;5202139;22;20362;-69
2022/02/21 04:58:16;;;;;;;4.68;2.50;;;22.40;60.60;;;;;;5202034;22;20019;-68
2022/02/21 05:00:39;;;;;;;5.40;2.58;;;22.40;60.60;;;;;;5203664;22;20319;-66
2022/02/21 05:03:01;;;;;;;4.97;2.47;;;22.40;60.70;;;;;;5201805;22;20473;-69
2022/02/21 05:05:26;;;;;;;4.65;2.40;;;22.40;60.60;;;;;;5193367;22;20022;-67
2022/02/21 05:07:49;;;;;;;4.50;2.33;;;22.40;60.70;;;;;;5200320;22;20011;-70
2022/02/21 05:10:12;;;;;;;3.70;2.20;;;22.40;60.70;;;;;;5202270;22;20649;-72
2022/02/21 05:12:35;;;;;;;4.80;2.42;;;22.50;60.80;;;;;;5188283;22;20095;-68
2022/02/21 05:14:57;;;;;;;5.70;2.53;;;22.50;60.90;;;;;;5154876;22;20540;-72
2022/02/21 05:17:20;;;;;;;3.95;2.42;;;22.50;60.90;;;;;;5186758;22;21082;-69
2022/02/21 05:19:42;;;;;;;5.10;2.10;;;22.50;60.70;;;;;;5181923;22;20010;-67
2022/02/21 05:22:05;;;;;;;3.85;2.25;;;22.60;60.90;;;;;;5158259;22;20448;-70
2022/02/21 05:24:28;;;;;;;4.20;2.30;;;22.60;60.80;;;;;;5188164;22;20014;-70
2022/02/21 05:26:50;;;;;;;3.22;2.15;;;22.60;60.60;;;;;;5185430;22;20022;-69
2022/02/21 05:29:13;;;;;;;3.20;2.00;;;22.60;60.70;;;;;;5190198;22;21167;-67
2022/02/21 05:31:36;;;;;;;4.40;2.25;;;22.70;60.50;;;;;;5183095;22;20079;-67
2022/02/21 05:33:58;;;;;;;4.28;2.25;;;22.70;60.30;;;;;;5183454;22;20126;-69
2022/02/21 05:36:21;;;;;;;3.00;2.08;;;22.70;60.30;;;;;;5189043;22;20118;-73
2022/02/21 05:38:44;;;;;;;2.72;1.90;;;22.70;60.00;;;;;;5181671;22;20026;-66
2022/02/21 05:41:06;;;;;;;4.25;2.15;;;22.80;60.10;;;;;;5178354;22;20010;-69
2022/02/21 05:43:29;;;;;;;3.60;2.05;;;22.80;59.80;;;;;;5186595;22;20975;-65
2022/02/21 05:45:51;;;;;;;3.72;2.17;;;22.80;60.00;;;;;;5175508;22;20497;-66
2022/02/21 05:48:14;;;;;;;3.55;1.92;;;22.70;60.00;;;;;;5163812;22;20019;-62
2022/02/21 05:50:36;;;;;;;3.55;1.85;;;22.70;60.00;;;;;;5180756;22;20109;-63
2022/02/21 05:52:59;;;;;;;4.70;2.25;;;22.70;59.90;;;;;;5181896;22;20018;-63
2022/02/21 05:55:22;;;;;;;2.92;2.17;;;22.70;60.00;;;;;;5172827;22;20015;-64
2022/02/21 05:57:45;;;;;;;3.22;1.77;;;22.60;60.00;;;;;;5179568;22;20592;-65
2022/02/21 06:00:09;;;;;;;4.30;2.15;;;22.60;59.90;;;;;;5178465;22;20022;-67
2022/02/21 06:02:32;;;;;;;7.55;2.33;;;22.60;60.00;;;;;;5173655;22;20025;-67
2022/02/21 06:04:55;;;;;;;3.83;2.17;;;22.50;60.20;;;;;;5178548;22;20042;-61
2022/02/21 06:07:18;;;;;;;4.43;2.15;;;22.50;60.00;;;;;;5167848;22;20822;-67
2022/02/21 06:09:40;;;;;;;3.67;2.15;;;22.50;59.80;;;;;;5175514;22;20010;-64
2022/02/21 06:12:03;;;;;;;3.70;1.83;;;22.40;59.80;;;;;;5178767;22;20346;-71
2022/02/21 06:14:25;;;;;;;4.45;2.53;;;22.40;60.10;;;;;;5175820;22;20454;-70
2022/02/21 06:16:48;;;;;;;8.32;2.05;;;22.30;59.90;;;;;;5175540;22;20023;-66
2022/02/21 06:19:11;;;;;;;3.83;1.85;;;22.30;60.60;;;;;;5179769;22;20593;-68
2022/02/21 06:21:34;;;;;;;2.77;1.70;;;22.40;61.10;;;;;;5180854;22;20057;-64
2022/02/21 06:23:56;;;;;;;2.83;1.52;;;22.60;61.50;;;;;;5177960;22;20011;-68
2022/02/21 06:26:19;;;;;;;3.22;1.85;;;22.80;61.60;;;;;;5179582;22;20878;-64
2022/02/21 06:28:41;;;;;;;5.50;2.15;;;23.10;61.90;;;;;;5187555;22;20025;-69
2022/02/21 06:31:08;;;;;;;4.88;1.90;;;23.20;62.00;;;;;;5185678;22;20014;-68
2022/02/21 06:33:30;;;;;;;6.47;2.40;;;23.50;62.10;;;;;;5178674;22;20007;-65
2022/02/21 06:35:53;;;;;;;5.90;1.90;;;23.60;61.90;;;;;;5150765;22;20398;-66
2022/02/21 06:38:16;;;;;;;6.88;3.03;;;23.80;61.90;;;;;;5183773;22;20077;-65
2022/02/21 06:40:39;;;;;;;5.65;3.03;;;24.00;62.10;;;;;;5184444;22;20021;-65
2022/02/21 06:43:02;;;;;;;4.70;3.03;;;24.10;62.40;;;;;;5187451;22;20087;-65
2022/02/21 06:45:26;;;;;;;4.30;3.00;;;24.20;62.60;;;;;;5180692;22;20163;-65
2022/02/21 06:47:48;;;;;;;6.32;3.05;;;24.40;62.20;;;;;;5189188;22;20006;-62
2022/02/21 06:50:11;;;;;;;7.60;3.10;;;24.50;62.00;;;;;;5189114;22;20053;-63
2022/02/21 06:52:34;;;;;;;5.10;2.70;;;24.60;61.90;;;;;;5151959;22;20057;-64
2022/02/21 06:54:57;;;;;;;8.63;3.25;;;24.70;61.80;;;;;;5188153;22;20109;-65
2022/02/21 06:57:26;;;;;;;5.85;3.00;;;24.80;61.80;;;;;;5181638;22;20023;-65
2022/02/21 06:59:49;;;;;;;8.45;3.05;;;25.00;61.80;;;;;;5181314;22;20161;-65
2022/02/21 07:02:12;;;;;;;6.22;3.03;;;25.10;61.70;;;;;;5184879;22;20018;-66
2022/02/21 07:04:34;;;;;;;7.05;3.00;;;25.10;61.70;;;;;;5180683;22;20021;-65
2022/02/21 07:06:57;;;;;;;5.32;3.58;;;25.30;61.70;;;;;;5148380;22;20022;-63
2022/02/21 07:09:19;;;;;;;6.88;4.00;;;25.40;61.80;;;;;;5185661;22;20513;-63
2022/02/21 07:11:42;;;;;;;6.53;3.60;;;25.40;61.70;;;;;;5179344;22;20021;-64
2022/02/21 07:14:05;;;;;;;10.43;3.70;;;25.50;61.70;;;;;;5186755;22;20026;-61
2022/02/21 07:16:28;;;;;;;6.13;3.60;;;25.60;61.80;;;;;;5190037;22;20019;-61
2022/02/21 07:18:51;;;;;;;7.60;3.75;;;25.70;61.90;;;;;;5154099;22;20057;-60
2022/02/21 07:21:13;;;;;;;6.32;3.42;;;25.80;61.80;;;;;;5157585;22;20585;-67
2022/02/21 07:23:36;;;;;;;7.95;3.30;;;25.80;61.80;;;;;;5197533;22;20739;-67
2022/02/21 07:25:58;;;;;;;8.48;4.07;;;25.90;61.70;;;;;;5190800;22;20010;-63
2022/02/21 07:28:21;;;;;;;8.68;4.53;;;26.00;62.10;;;;;;5190386;22;20102;-61
2022/02/21 07:30:44;;;;;;;7.72;5.10;;;26.00;62.50;;;;;;5188659;22;20597;-61
2022/02/21 07:33:07;;;;;;;8.63;5.20;;;26.10;62.90;;;;;;5165992;22;20007;-60
2022/02/21 07:35:29;;;;;;;12.07;5.55;;;26.10;62.90;;;;;;5196964;22;20014;-60
2022/02/21 07:37:52;;;;;;;9.88;4.35;;;26.20;63.00;;;;;;5201460;22;20095;-62
2022/02/21 07:40:15;;;;;;;9.77;4.70;;;26.30;62.80;;;;;;5200708;22;20022;-62
2022/02/21 07:42:42;;;;;;;8.02;4.15;;;26.40;62.90;;;;;;5202564;22;20014;-64
2022/02/21 07:45:06;;;;;;;12.30;3.97;;;26.40;62.60;;;;;;5191889;22;20769;-63
2022/02/21 07:47:29;;;;;;;9.70;3.83;;;26.50;62.70;;;;;;5181456;22;20015;-63
2022/02/21 07:49:51;;;;;;;6.93;3.75;;;26.50;62.50;;;;;;5194161;22;20486;-64
2022/02/21 07:52:14;;;;;;;8.18;3.60;;;26.50;62.40;;;;;;5180920;22;20022;-63
2022/02/21 07:54:37;;;;;;;6.35;3.50;;;26.60;62.60;;;;;;5177597;22;20007;-62
2022/02/21 07:57:01;;;;;;;5.13;3.22;;;26.60;62.50;;;;;;5172220;22;20054;-63
2022/02/21 07:59:24;;;;;;;6.72;3.10;;;26.70;62.50;;;;;;5174445;22;20858;-62
2022/02/21 08:01:46;;;;;;;7.10;3.25;;;26.70;62.30;;;;;;5174213;22;20466;-62
2022/02/21 08:04:09;;;;;;;5.72;2.78;;;26.70;62.10;;;;;;5146292;22;20823;-62
2022/02/21 08:06:31;;;;;;;4.60;2.60;;;26.80;62.70;;;;;;5175340;22;20015;-60
2022/02/21 08:08:54;;;;;;;4.47;2.40;;;26.80;61.80;;;;;;5173350;22;20014;-59
2022/02/21 08:11:16;;;;;;;4.10;2.42;;;26.80;61.90;;;;;;5172842;22;20016;-63
2022/02/21 08:13:39;;;;;;;3.92;2.33;;;26.80;62.00;;;;;;5174348;22;20019;-64
2022/02/21 08:16:02;;;;;;;5.57;2.40;;;26.90;62.10;;;;;;5178074;22;20019;-64
2022/02/21 08:18:26;;;;;;;5.70;2.25;;;26.90;62.10;;;;;;5171510;22;20023;-63
2022/02/21 08:20:49;;;;;;;6.28;2.63;;;26.90;62.10;;;;;;5182634;22;20084;-67
2022/02/21 08:23:11;;;;;;;4.65;1.92;;;26.90;62.40;;;;;;5191322;22;20033;-69
2022/02/21 08:25:35;;;;;;;4.95;2.00;;;27.00;62.50;;;;;;5180258;22;20046;-65
2022/02/21 08:27:57;;;;;;;;;;;27.00;62.60;;;;;;5184732;22;20101;-62
2022/02/21 08:30:22;;;;;;;4.25;2.20;;;27.10;62.60;;;;;;5182181;22;19996;-59
2022/02/21 08:32:45;;;;;;;4.72;2.33;;;27.10;62.60;;;;;;5176907;22;20321;-60
2022/02/21 08:35:09;;;;;;;11.73;2.33;;;27.10;62.50;;;;;;5178726;22;20011;-60
2022/02/21 08:37:32;;;;;;;10.73;2.10;;;27.10;62.60;;;;;;5177921;22;20264;-62
2022/02/21 08:39:54;;;;;;;4.65;1.90;;;27.20;62.70;;;;;;5175906;22;20026;-63
2022/02/21 08:42:17;;;;;;;4.82;1.67;;;27.20;62.70;;;;;;5179064;22;20011;-65
2022/02/21 08:44:39;;;;;;;4.22;2.03;;;27.20;62.80;;;;;;5180475;22;20023;-61
2022/02/21 08:47:02;;;;;;;4.70;1.67;;;27.30;62.90;;;;;;5172627;22;20050;-60
2022/02/21 08:49:25;;;;;;;5.50;2.10;;;27.30;63.50;;;;;;5177216;22;20181;-64
2022/02/21 08:51:47;;;;;;;3.97;1.70;;;27.40;63.00;;;;;;5181586;22;20048;-66
2022/02/21 08:54:10;;;;;;;3.65;1.63;;;27.40;63.00;;;;;;5176410;22;20015;-64
2022/02/21 08:56:33;;;;;;;4.43;1.75;;;27.40;63.10;;;;;;5153095;22;20933;-65
2022/02/21 08:58:55;;;;;;;4.05;1.45;;;27.40;63.00;;;;;;5181502;22;20057;-64
2022/02/21 09:01:18;;;;;;;5.23;1.70;;;27.40;63.00;;;;;;5180773;22;20086;-66
2022/02/21 09:03:41;;;;;;;4.53;1.92;;;27.50;63.20;;;;;;5188589;22;20080;-69
2022/02/21 09:06:06;;;;;;;4.37;1.53;;;27.50;63.30;;;;;;5198070;22;20698;-66
2022/02/21 09:08:31;;;;;;;4.53;1.77;;;27.60;63.40;;;;;;5188550;22;20085;-71
2022/02/21 09:10:54;;;;;;;4.20;1.50;;;27.60;63.40;;;;;;5188358;22;20019;-67
2022/02/21 09:13:16;;;;;;;2.88;1.20;;;27.60;63.40;;;;;;5189875;22;20107;-67
2022/02/21 09:15:39;;;;;;;4.93;1.57;;;27.70;63.50;;;;;;5189046;22;20019;-64
2022/02/21 09:18:04;;;;;;;4.65;1.98;;;27.70;63.50;;;;;;5189232;22;20029;-71
2022/02/21 09:20:26;;;;;;;4.38;1.73;;;27.70;63.50;;;;;;5188715;22;20021;-70
2022/02/21 09:22:49;;;;;;;3.65;1.75;;;27.80;63.60;;;;;;5184514;22;20124;-65
2022/02/21 09:25:12;;;;;;;3.30;1.70;;;27.80;63.60;;;;;;5185875;22;20985;-64
2022/02/21 09:27:35;;;;;;;3.83;1.40;;;27.80;63.60;;;;;;5156182;22;20026;-68
2022/02/21 09:29:58;;;;;;;3.42;1.70;;;27.80;63.60;;;;;;5186556;22;20086;-67
2022/02/21 09:32:20;;;;;;;2.65;1.60;;;27.90;63.70;;;;;;5157861;22;20172;-69
2022/02/21 09:34:43;;;;;;;4.00;1.60;;;27.90;63.60;;;;;;5191967;22;20612;-64
2022/02/21 09:37:06;;;;;;;3.40;1.60;;;27.90;63.60;;;;;;5184463;22;20023;-66
2022/02/21 09:39:29;;;;;;;3.10;1.30;;;27.90;63.60;;;;;;5189508;22;20010;-65
2022/02/21 09:41:51;;;;;;;2.03;1.25;;;28.00;63.70;;;;;;5195523;22;20010;-65
2022/02/21 09:44:14;;;;;;;3.10;1.50;;;28.00;63.70;;;;;;5188281;22;20126;-68
2022/02/21 09:46:38;;;;;;;3.00;1.25;;;28.10;63.70;;;;;;5189602;22;20117;-69
2022/02/21 09:49:01;;;;;;;3.00;1.45;;;28.00;63.70;;;;;;5193873;22;20713;-66
2022/02/21 09:51:23;;;;;;;3.10;1.48;;;28.10;64.00;;;;;;5186029;22;20074;-68
2022/02/21 09:53:46;;;;;;;5.03;1.08;;;28.10;63.80;;;;;;5189845;22;20894;-66
2022/02/21 09:56:08;;;;;;;5.30;2.00;;;28.20;63.90;;;;;;5186548;22;20586;-67
2022/02/21 09:58:33;;;;;;;4.25;2.00;;;28.20;63.80;;;;;;5188377;22;20027;-65
2022/02/21 10:00:55;;;;;;;3.05;1.40;;;28.20;63.80;;;;;;5186699;22;20914;-70
2022/02/21 10:03:36;;;;;;;7.05;1.92;;;28.20;63.80;;;;;;5200357;22;20251;-68
2022/02/21 10:06:23;;;;;;;4.95;1.63;;;28.30;64.00;;;;;;5196294;22;20019;-74
2022/02/21 10:09:08;;;;;;;2.35;1.40;;;28.30;64.00;;;;;;5196769;22;20018;-64
2022/02/21 10:11:33;;;;;;;4.35;1.65;;;28.30;63.90;;;;;;5185971;22;20448;-67
2022/02/21 10:14:02;;;;;;;4.03;1.67;;;28.30;64.00;;;;;;5192461;22;20023;-65
2022/02/21 10:16:26;;;;;;;3.28;1.40;;;28.40;64.00;;;;;;5191850;22;20021;-65
2022/02/21 10:18:49;;;;;;;4.47;1.63;;;28.40;64.00;;;;;;5188980;22;20687;-66
2022/02/21 10:21:11;;;;;;;2.53;1.20;;;28.40;64.00;;;;;;5183845;22;20026;-64
2022/02/21 10:23:38;;;;;;;6.07;1.73;;;28.40;64.00;;;;;;5194204;22;20021;-67
2022/02/21 10:26:06;;;;;;;3.35;1.42;;;28.40;63.90;;;;;;5186708;22;20010;-66
2022/02/21 10:28:31;;;;;;;5.75;1.63;;;28.40;63.90;;;;;;5188944;22;20011;-70
2022/02/21 10:31:14;;;;;;;3.38;1.65;;;28.50;63.70;;;;;;5190611;22;20010;-68
2022/02/21 10:33:36;;;;;;;2.90;1.10;;;28.50;64.20;;;;;;5186388;22;20191;-66
2022/02/21 10:35:59;;;;;;;2.92;1.30;;;28.50;64.30;;;;;;5164486;22;20608;-71
2022/02/21 10:38:21;;;;;;;3.72;1.45;;;28.50;64.20;;;;;;5195122;22;20023;-66
2022/02/21 10:40:45;;;;;;;3.00;1.33;;;28.60;64.40;;;;;;5195218;22;20011;-67
2022/02/21 10:43:10;;;;;;;;;;;28.50;64.30;;;;;;5181201;22;20324;-67
2022/02/21 10:45:34;;;;;;;3.83;1.40;;;28.60;64.40;;;;;;5192159;22;19975;-69
2022/02/21 10:48:06;;;;;;;3.05;1.50;;;28.60;64.50;;;;;;5201694;22;20080;-67
2022/02/21 10:50:32;;;;;;;3.83;1.40;;;28.60;64.50;;;;;;5192876;22;20015;-67
2022/02/21 10:52:55;;;;;;;3.05;1.48;;;28.60;64.50;;;;;;5191363;22;20827;-68
2022/02/21 10:55:17;;;;;;;3.25;1.42;;;28.60;64.40;;;;;;5195092;22;20025;-64
2022/02/21 10:57:45;;;;;;;4.68;1.20;;;28.60;64.60;;;;;;5191102;22;20577;-65
2022/02/21 11:00:10;;;;;;;2.05;1.30;;;28.70;64.80;;;;;;5199675;22;20068;-67
2022/02/21 11:02:33;;;;;;;3.17;1.65;;;28.70;64.80;;;;;;5194508;22;20742;-68
2022/02/21 11:04:56;;;;;;;4.13;1.90;;;28.70;64.80;;;;;;5197701;22;20784;-70
2022/02/21 11:07:20;;;;;;;;;;;28.70;64.80;;;;;;5190881;22;20733;-74
2022/02/21 11:09:44;;;;;;;2.87;1.50;;;28.70;64.90;;;;;;5187307;22;20417;-67
2022/02/21 11:12:07;;;;;;;2.72;1.33;;;28.70;64.90;;;;;;5203308;22;20034;-70
2022/02/21 11:14:31;;;;;;;3.20;1.42;;;28.70;64.80;;;;;;5193794;22;20017;-65
2022/02/21 11:16:53;;;;;;;;;;;28.70;65.10;;;;;;5188714;22;20106;-65
2022/02/21 11:19:17;;;;;;;3.83;1.45;;;28.80;65.40;;;;;;5193591;22;20699;-68
2022/02/21 11:21:41;;;;;;;3.47;1.25;;;28.80;65.20;;;;;;5162523;22;20073;-64
2022/02/21 11:24:06;;;;;;;2.60;1.60;;;28.80;65.40;;;;;;5197427;22;20564;-66
2022/02/21 11:26:35;;;;;;;4.85;1.52;;;28.80;65.30;;;;;;5203216;22;20117;-68
2022/02/21 11:29:13;;;;;;;3.33;1.48;;;28.80;65.40;;;;;;5195132;22;20015;-68
2022/02/21 11:31:40;;;;;;;3.10;1.73;;;28.80;65.50;;;;;;5196948;22;20046;-72
2022/02/21 11:34:11;;;;;;;3.33;1.70;;;28.80;65.50;;;;;;5202946;22;20399;-68
2022/02/21 11:36:37;;;;;;;4.43;1.50;;;28.80;65.70;;;;;;5200564;22;20019;-66
2022/02/21 11:38:59;;;;;;;2.78;1.40;;;28.80;65.60;;;;;;5217080;22;20019;-67
2022/02/21 11:41:31;;;;;;;3.33;1.20;;;28.80;65.70;;;;;;5222029;22;20031;-64
2022/02/21 11:43:54;;;;;;;2.40;1.40;;;28.90;65.90;;;;;;5217411;22;20018;-66
2022/02/21 11:46:25;;;;;;;4.30;1.40;;;28.90;65.90;;;;;;5209014;22;20011;-68
2022/02/21 11:48:59;;;;;;;5.70;1.50;;;28.90;65.90;;;;;;5198632;22;20358;-71
2022/02/21 11:51:41;;;;;;;2.15;1.30;;;28.90;65.80;;;;;;5203835;22;20068;-71
2022/02/21 11:54:13;;;;;;;3.53;1.23;;;28.90;65.80;;;;;;5203704;22;20015;-68
2022/02/21 11:56:50;;;;;;;4.80;1.67;;;28.90;65.70;;;;;;5197413;22;20014;-67
2022/02/21 11:59:25;;;;;;;2.95;1.30;;;28.90;65.60;;;;;;5193135;22;20079;-66
2022/02/21 12:02:17;;;;;;;3.38;1.35;;;28.90;65.50;;;;;;5193644;22;21043;-66
2022/02/21 12:04:59;;;;;;;2.75;1.30;;;29.00;65.50;;;;;;5191922;22;20179;-69
2022/02/21 12:07:36;;;;;;;2.67;1.25;;;29.00;65.40;;;;;;5194171;22;20019;-66
2022/02/21 12:10:09;;;;;;;2.70;1.17;;;29.00;65.40;;;;;;5197140;22;20989;-63
2022/02/21 12:12:50;;;;;;;2.60;1.40;;;29.00;65.50;;;;;;5190987;22;20071;-65
2022/02/21 12:15:15;;;;;;;4.82;1.48;;;29.00;65.50;;;;;;5191528;22;20015;-62
2022/02/21 12:17:38;;;;;;;4.82;1.83;;;29.00;65.50;;;;;;5181743;22;20027;-62
2022/02/21 12:20:31;;;;;;;4.18;1.27;;;28.90;65.60;;;;;;5189596;22;20003;-61
2022/02/21 12:23:09;;;;;;;3.35;1.38;;;28.90;65.70;;;;;;5184621;22;20023;-60
2022/02/21 12:25:51;;;;;;;2.72;1.15;;;28.80;65.70;;;;;;5183735;22;20118;-61
2022/02/21 12:28:24;;;;;;;2.42;1.23;;;28.80;65.80;;;;;;5188270;22;20014;-61
2022/02/21 12:30:49;;;;;;;5.20;1.73;;;28.80;65.80;;;;;;5159006;22;20076;-64